Time;durP1;ratioP1;P1;durP2;ratioP2;P2;SDS_P1;SDS_P2;PMS_P1;PMS_P2;Temp;Humidity;BMP_temperature;BMP_pressure;BME280_temperature;BME280_humidity;BME280_pressure;Samples;Min_cycle;Max_cycle;Signal;HPM_P1;HPM_P2
2021/12/28 00:00:21;;;;;;;26.73;12.27;;;;;;;6.46;100.00;98058.25;4955137;28;20049;-79
2021/12/28 00:02:48;;;;;;;30.88;11.25;;;;;;;6.42;100.00;98061.53;4947961;28;20101;-79
2021/12/28 00:05:14;;;;;;;23.60;9.32;;;;;;;6.38;100.00;98059.31;4961688;28;20354;-82
2021/12/28 00:07:40;;;;;;;36.95;12.10;;;;;;;6.40;100.00;98061.75;4932242;28;22353;-82
2021/12/28 00:10:09;;;;;;;21.85;8.65;;;;;;;6.46;100.00;98065.44;4934701;28;20035;-80
2021/12/28 00:12:37;;;;;;;29.77;11.30;;;;;;;6.38;100.00;98056.63;4962737;28;20047;-81
2021/12/28 00:15:31;;;;;;;20.08;8.43;;;;;;;6.33;100.00;98029.78;4964238;28;20654;-81
2021/12/28 00:18:01;;;;;;;23.98;9.23;;;;;;;6.35;100.00;98041.06;4950013;28;20050;-81
2021/12/28 00:20:34;;;;;;;23.98;9.02;;;;;;;6.41;100.00;98044.72;4949701;28;20085;-81
2021/12/28 00:23:02;;;;;;;26.80;10.00;;;;;;;6.35;100.00;98037.56;4949002;28;20484;-79
2021/12/28 00:25:28;;;;;;;36.38;11.10;;;;;;;6.38;100.00;98031.81;4936764;28;20337;-80
2021/12/28 00:27:54;;;;;;;17.23;7.75;;;;;;;6.33;100.00;98027.09;4945223;28;20030;-78
2021/12/28 00:30:20;;;;;;;34.97;13.20;;;;;;;6.34;100.00;98038.59;4935272;28;20050;-80
2021/12/28 00:32:52;;;;;;;40.53;12.38;;;;;;;6.32;100.00;98035.31;4943569;28;20034;-79
2021/12/28 00:35:22;;;;;;;29.83;12.88;;;;;;;6.32;100.00;98029.97;4945805;28;20038;-80
2021/12/28 00:37:48;;;;;;;27.73;12.07;;;;;;;6.29;100.00;98025.06;4945575;28;20050;-80
2021/12/28 00:40:14;;;;;;;27.08;8.13;;;;;;;6.35;100.00;98030.38;4936377;28;20041;-80
2021/12/28 00:42:40;;;;;;;30.23;11.02;;;;;;;6.38;100.00;98026.47;4952313;28;20157;-79
2021/12/28 00:45:07;;;;;;;32.20;9.10;;;;;;;6.41;100.00;98026.03;4949575;28;20042;-79
2021/12/28 00:47:33;;;;;;;29.67;11.18;;;;;;;6.39;100.00;98031.56;4947415;28;20038;-80
2021/12/28 00:49:58;;;;;;;35.00;12.70;;;;;;;6.32;100.00;98021.97;4950712;28;20042;-82
2021/12/28 00:52:24;;;;;;;44.72;13.40;;;;;;;6.32;100.00;98021.97;4941239;28;20043;-80
2021/12/28 00:54:50;;;;;;;45.17;14.25;;;;;;;6.33;100.00;98023.63;4962015;28;20432;-78
2021/12/28 00:57:15;;;;;;;39.40;14.05;;;;;;;6.32;100.00;98021.97;4934011;28;20281;-81
2021/12/28 00:59:41;;;;;;;39.10;11.15;;;;;;;6.31;100.00;98023.03;4933721;28;20027;-80
2021/12/28 01:02:07;;;;;;;46.65;15.80;;;;;;;6.34;100.00;98027.91;4927072;28;20061;-80
2021/12/28 01:04:32;;;;;;;22.33;9.13;;;;;;;6.33;100.00;98021.78;4959756;28;20455;-80
2021/12/28 01:06:58;;;;;;;15.95;7.35;;;;;;;6.31;100.00;98015.00;4931635;28;20039;-81
2021/12/28 01:09:30;;;;;;;24.92;10.93;;;;;;;6.35;100.00;98008.19;4925289;28;20129;-82
2021/12/28 01:11:58;;;;;;;31.98;11.90;;;;;;;6.30;100.00;98014.19;4947224;28;20064;-80
2021/12/28 01:14:23;;;;;;;39.25;12.90;;;;;;;6.29;100.00;98004.53;4930589;28;20046;-80
2021/12/28 01:16:49;;;;;;;32.22;11.25;;;;;;;6.18;100.00;97994.56;4930858;28;20424;-80
2021/12/28 01:19:14;;;;;;;35.42;11.23;;;;;;;6.20;100.00;97989.03;4946393;28;20039;-80
2021/12/28 01:21:40;;;;;;;28.65;9.85;;;;;;;6.26;100.00;97996.16;4929859;28;20026;-80
2021/12/28 01:24:06;;;;;;;33.83;11.30;;;;;;;6.19;100.00;97982.03;4930682;28;20487;-79
2021/12/28 01:26:32;;;;;;;27.00;9.13;;;;;;;6.25;100.00;97998.03;4946334;28;20465;-82
2021/12/28 01:28:58;;;;;;;22.52;9.40;;;;;;;6.28;100.00;97988.75;4936119;28;20034;-80
2021/12/28 01:31:23;;;;;;;8.05;3.80;;;;;;;6.28;100.00;97991.44;4966984;28;20114;-80
2021/12/28 01:33:49;;;;;;;6.50;3.85;;;;;;;6.25;100.00;97983.88;4959536;28;20053;-79
2021/12/28 01:36:15;;;;;;;3.83;3.33;;;;;;;6.25;100.00;97987.34;4931243;28;20354;-80
2021/12/28 01:38:41;;;;;;;0.70;0.70;;;;;;;6.26;100.00;97986.31;4948692;28;20035;-79
2021/12/28 01:41:09;;;;;;;0.82;0.82;;;;;;;6.25;100.00;97986.53;4953359;28;20178;-78
2021/12/28 01:43:38;;;;;;;1.80;1.73;;;;;;;6.22;100.00;97978.94;4949907;28;20470;-80
2021/12/28 01:46:04;;;;;;;6.10;1.75;;;;;;;6.26;100.00;97985.50;4966309;28;20029;-79
2021/12/28 01:48:36;;;;;;;0.63;0.63;;;;;;;6.21;100.00;97978.13;4932341;28;20065;-79
2021/12/28 01:51:13;;;;;;;0.55;0.55;;;;;;;6.13;100.00;97963.19;4931129;28;20028;-78
2021/12/28 01:53:40;;;;;;;0.98;0.80;;;;;;;6.28;100.00;97980.75;4936052;28;21643;-79
2021/12/28 01:56:16;;;;;;;0.60;0.60;;;;;;;6.22;100.00;97970.94;4955221;28;20038;-79
2021/12/28 01:58:42;;;;;;;0.52;0.52;;;;;;;6.23;100.00;97957.38;4926428;28;20393;-79
2021/12/28 02:01:08;;;;;;;0.40;0.40;;;;;;;6.16;100.00;97952.09;4943292;28;20054;-80
2021/12/28 02:03:36;;;;;;;1.55;1.15;;;;;;;6.24;100.00;97968.88;4959659;28;20035;-79
2021/12/28 02:06:02;;;;;;;9.73;1.50;;;;;;;6.22;100.00;97968.25;4948342;28;20051;-78
2021/12/28 02:08:28;;;;;;;0.60;0.60;;;;;;;6.22;100.00;97962.94;4945834;28;20027;-79
2021/12/28 02:10:55;;;;;;;2.13;2.00;;;;;;;6.25;100.00;97976.66;4960215;28;20030;-80
2021/12/28 02:13:21;;;;;;;1.92;1.67;;;;;;;6.25;100.00;97975.88;4943860;28;20042;-79
2021/12/28 02:15:48;;;;;;;0.98;0.98;;;;;;;6.18;100.00;97965.22;4947847;28;20041;-79
2021/12/28 02:18:17;;;;;;;1.27;1.23;;;;;;;6.22;100.00;97966.44;4929373;28;20096;-82
2021/12/28 02:20:43;;;;;;;0.40;0.40;;;;;;;6.22;100.00;97969.09;4960615;28;20453;-80
2021/12/28 02:23:09;;;;;;;0.50;0.50;;;;;;;6.24;100.00;97980.34;4944448;28;20060;-81
2021/12/28 02:25:35;;;;;;;0.40;0.40;;;;;;;6.22;100.00;97970.94;4971583;28;20030;-78
2021/12/28 02:28:03;;;;;;;4.03;0.70;;;;;;;6.17;100.00;97960.94;4948898;28;20054;-79
2021/12/28 02:30:29;;;;;;;0.80;0.80;;;;;;;6.06;100.00;97949.09;4968110;28;20110;-80
2021/12/28 02:32:55;;;;;;;3.03;2.85;;;;;;;6.19;100.00;97971.38;4970546;28;20110;-82
2021/12/28 02:35:23;;;;;;;0.45;0.45;;;;;;;6.19;100.00;97968.69;4961970;28;20031;-79
2021/12/28 02:37:50;;;;;;;2.03;1.33;;;;;;;6.19;100.00;97974.84;4946994;28;20049;-81
2021/12/28 02:40:19;;;;;;;0.60;0.60;;;;;;;6.19;100.00;97977.50;4950788;28;20113;-79
2021/12/28 02:42:45;;;;;;;0.85;0.80;;;;;;;6.18;100.00;97980.41;4937277;28;20487;-80
2021/12/28 02:45:15;;;;;;;2.60;2.28;;;;;;;6.17;100.00;97974.28;4936399;28;20039;-79
2021/12/28 02:47:43;;;;;;;5.00;3.83;;;;;;;6.12;100.00;97985.56;4964985;28;20121;-79
2021/12/28 02:50:17;;;;;;;0.82;0.82;;;;;;;6.11;100.00;97975.09;4945691;28;20050;-80
2021/12/28 02:52:43;;;;;;;0.80;0.80;;;;;;;6.05;100.00;97982.13;4979069;28;20031;-79
2021/12/28 02:55:12;;;;;;;1.08;1.08;;;;;;;6.09;100.00;97995.88;4944659;28;20035;-80
2021/12/28 02:57:48;;;;;;;0.75;0.75;;;;;;;6.16;100.00;98001.97;4959628;28;20058;-81
2021/12/28 03:00:16;;;;;;;0.63;0.63;;;;;;;6.19;100.00;97998.03;4944340;28;20512;-79
2021/12/28 03:02:42;;;;;;;0.60;0.60;;;;;;;6.21;100.00;98012.00;4948096;28;20033;-80
2021/12/28 03:05:07;;;;;;;0.40;0.40;;;;;;;6.16;100.00;98009.97;4933293;28;20382;-79
2021/12/28 03:07:33;;;;;;;1.50;0.70;;;;;;;6.24;100.00;98032.91;4951149;28;20042;-78
2021/12/28 03:09:59;;;;;;;8.90;3.05;;;;;;;6.22;100.00;98002.94;4931618;28;20519;-81
2021/12/28 03:12:24;;;;;;;0.50;0.50;;;;;;;6.04;100.00;97982.34;4953264;28;20033;-78
2021/12/28 03:14:50;;;;;;;0.55;0.55;;;;;;;6.01;100.00;97991.59;4933783;28;20038;-78
2021/12/28 03:17:16;;;;;;;0.43;0.43;;;;;;;5.99;100.00;98000.84;4952910;28;20030;-79
2021/12/28 03:19:41;;;;;;;0.43;0.43;;;;;;;5.98;100.00;97997.38;4962546;28;20034;-79
2021/12/28 03:22:07;;;;;;;0.50;0.50;;;;;;;5.93;100.00;97981.16;4948785;28;20484;-79
2021/12/28 03:24:32;;;;;;;0.43;0.43;;;;;;;5.96;100.00;97988.75;4961575;28;20574;-79
2021/12/28 03:26:58;;;;;;;0.52;0.52;;;;;;;5.98;100.00;97992.03;4952134;28;20026;-80
2021/12/28 03:29:24;;;;;;;0.40;0.40;;;;;;;5.98;100.00;97986.69;4967762;28;20370;-78
2021/12/28 03:31:50;;;;;;;0.73;0.73;;;;;;;5.95;100.00;97987.09;4948936;28;20381;-78
2021/12/28 03:34:16;;;;;;;1.77;1.67;;;;;;;5.75;100.00;97973.88;4952633;28;20058;-78
2021/12/28 03:36:41;;;;;;;0.50;0.50;;;;;;;5.86;100.00;97988.38;4951513;28;20493;-78
2021/12/28 03:39:07;;;;;;;0.40;0.40;;;;;;;5.87;100.00;97990.00;4953999;28;20107;-78
2021/12/28 03:41:34;;;;;;;0.50;0.50;;;;;;;5.84;100.00;98001.91;4946847;28;20497;-81
2021/12/28 03:44:00;;;;;;;0.40;0.40;;;;;;;5.81;100.00;98007.66;4947467;28;20033;-79
2021/12/28 03:46:27;;;;;;;0.40;0.40;;;;;;;5.73;100.00;98000.72;4948623;28;20026;-79
2021/12/28 03:48:53;;;;;;;0.40;0.40;;;;;;;5.77;100.00;98005.63;4935222;28;20093;-79
2021/12/28 03:51:19;;;;;;;0.47;0.47;;;;;;;5.67;100.00;97993.59;4965605;28;20125;-81
2021/12/28 03:53:48;;;;;;;0.40;0.40;;;;;;;5.70;100.00;98009.16;4961116;28;20520;-80
2021/12/28 03:56:14;;;;;;;0.50;0.50;;;;;;;5.62;100.00;97989.91;4962150;28;20376;-79
2021/12/28 03:58:41;;;;;;;0.40;0.40;;;;;;;5.61;100.00;97996.25;4933837;28;20105;-79
2021/12/28 04:01:09;;;;;;;0.50;0.50;;;;;;;5.61;100.00;98002.44;4928215;28;20042;-81
2021/12/28 04:03:35;;;;;;;0.50;0.50;;;;;;;5.57;100.00;98006.53;4949368;28;20555;-79
2021/12/28 04:06:07;;;;;;;1.15;1.15;;;;;;;5.50;100.00;97989.75;4966950;28;20050;-81
2021/12/28 04:08:34;;;;;;;0.55;0.55;;;;;;;5.48;100.00;97995.31;4952251;28;20038;-80
2021/12/28 04:11:15;;;;;;;0.45;0.45;;;;;;;5.53;100.00;98008.00;4970471;28;20425;-78
2021/12/28 04:13:43;;;;;;;0.50;0.50;;;;;;;5.53;100.00;98010.69;4949230;28;20035;-80
2021/12/28 04:16:09;;;;;;;0.40;0.40;;;;;;;5.49;100.00;98014.78;4947836;28;20145;-78
2021/12/28 04:18:34;;;;;;;0.40;0.40;;;;;;;5.43;100.00;98016.44;4929707;28;20198;-83
2021/12/28 04:21:00;;;;;;;0.40;0.40;;;;;;;5.32;100.00;98009.09;4962812;28;20097;-79
2021/12/28 04:23:28;;;;;;;0.40;0.40;;;;;;;5.41;100.00;98028.34;4932178;28;20030;-79
2021/12/28 04:25:54;;;;;;;0.50;0.50;;;;;;;5.35;100.00;98013.19;4953068;28;20186;-79
2021/12/28 04:28:19;;;;;;;1.38;1.38;;;;;;;5.42;100.00;98024.63;4966684;28;20497;-81
2021/12/28 04:30:45;;;;;;;0.40;0.40;;;;;;;5.48;100.00;98029.16;4965949;28;20073;-79
2021/12/28 04:33:10;;;;;;;1.58;1.58;;;;;;;5.33;100.00;98000.06;4948490;28;20042;-79
2021/12/28 04:35:36;;;;;;;1.02;1.02;;;;;;;5.51;100.00;98026.06;4935191;28;20126;-78
2021/12/28 04:38:02;;;;;;;0.50;0.50;;;;;;;5.64;100.00;98042.00;4948237;28;20454;-81
2021/12/28 04:40:28;;;;;;;1.25;1.20;;;;;;;5.68;100.00;98053.03;4947168;28;20054;-79
2021/12/28 04:42:54;;;;;;;0.50;0.50;;;;;;;5.68;100.00;98051.19;4943959;28;20133;-78
2021/12/28 04:45:20;;;;;;;0.50;0.50;;;;;;;5.66;100.00;98055.09;4934777;28;20050;-80
2021/12/28 04:47:46;;;;;;;0.32;0.32;;;;;;;5.63;100.00;98069.66;4973866;28;20038;-80
2021/12/28 04:50:12;;;;;;;0.40;0.40;;;;;;;5.61;100.00;98073.56;4931973;28;20027;-80
2021/12/28 04:52:39;;;;;;;0.57;0.57;;;;;;;5.64;100.00;98081.16;4957232;28;20034;-79
2021/12/28 04:55:14;;;;;;;0.50;0.50;;;;;;;5.66;100.00;98090.59;4968072;28;20023;-79
2021/12/28 04:57:41;;;;;;;0.40;0.40;;;;;;;5.65;100.00;98098.78;4970104;28;20018;-80
2021/12/28 05:00:13;;;;;;;0.40;0.40;;;;;;;5.51;100.00;98087.34;4951368;28;20038;-81
2021/12/28 05:02:39;;;;;;;0.50;0.50;;;;;;;5.62;100.00;98116.03;4964290;28;20034;-81
2021/12/28 05:05:06;;;;;;;0.50;0.50;;;;;;;5.57;100.00;98107.81;4946872;28;20057;-80
2021/12/28 05:07:31;;;;;;;0.40;0.40;;;;;;;5.53;100.00;98111.13;4968901;28;20110;-78
2021/12/28 05:09:58;;;;;;;1.02;1.02;;;;;;;5.53;100.00;98119.94;4950235;28;20114;-79
2021/12/28 05:12:27;;;;;;;0.40;0.40;;;;;;;5.46;100.00;98111.13;4950253;28;20512;-80
2021/12/28 05:14:53;;;;;;;0.60;0.60;;;;;;;5.32;100.00;98125.50;4945314;28;20034;-82
2021/12/28 05:17:19;;;;;;;0.47;0.47;;;;;;;5.04;100.00;98116.69;4961628;28;20042;-78
2021/12/28 05:19:45;;;;;;;0.60;0.45;;;;;;;4.78;100.00;98112.19;4960043;28;20042;-81
2021/12/28 05:22:12;;;;;;;0.73;0.73;;;;;;;4.65;100.00;98130.78;4963862;28;20065;-79
2021/12/28 05:24:38;;;;;;;0.50;0.50;;;;;;;4.84;100.00;98135.34;4948217;28;20038;-80
2021/12/28 05:27:05;;;;;;;0.98;0.98;;;;;;;4.85;100.00;98102.38;4946973;28;20043;-79
2021/12/28 05:29:31;;;;;;;0.40;0.40;;;;;;;5.12;100.00;98130.84;4943963;28;20039;-79
2021/12/28 05:31:57;;;;;;;0.40;0.40;;;;;;;5.10;100.00;98133.69;4944280;28;20045;-79
2021/12/28 05:34:22;;;;;;;0.50;0.50;;;;;;;5.00;100.00;98130.63;4947741;28;20081;-78
2021/12/28 05:36:48;;;;;;;0.40;0.40;;;;;;;4.82;100.00;98128.59;4961956;28;20074;-79
2021/12/28 05:39:14;;;;;;;1.08;1.08;;;;;;;4.68;100.00;98149.00;4930077;28;20353;-78
2021/12/28 05:41:39;;;;;;;1.88;1.77;;;;;;;4.44;100.00;98157.56;4946987;28;20045;-80
2021/12/28 05:44:05;;;;;;;0.60;0.60;;;;;;;4.14;100.00;98173.81;4963781;28;20492;-79
2021/12/28 05:46:31;;;;;;;0.40;0.40;;;;;;;4.01;100.00;98182.56;4964578;28;20031;-79
2021/12/28 05:48:57;;;;;;;0.47;0.47;;;;;;;4.10;100.00;98191.19;4928911;28;20357;-80
2021/12/28 05:51:23;;;;;;;0.77;0.77;;;;;;;4.24;100.00;98198.22;4946945;28;20038;-80
2021/12/28 05:53:48;;;;;;;0.40;0.40;;;;;;;4.24;100.00;98192.91;4948362;28;20046;-82
2021/12/28 05:56:14;;;;;;;0.50;0.50;;;;;;;4.16;100.00;98191.22;4947095;28;20373;-80
2021/12/28 05:58:40;;;;;;;0.63;0.63;;;;;;;4.15;100.00;98197.56;4948293;28;20034;-80
2021/12/28 06:01:06;;;;;;;0.40;0.40;;;;;;;3.91;100.00;98203.34;4948367;28;20031;-81
2021/12/28 06:03:32;;;;;;;0.85;0.85;;;;;;;3.77;100.00;98231.69;4950923;28;20022;-79
2021/12/28 06:05:58;;;;;;;0.40;0.40;;;;;;;3.50;100.00;98220.88;4953240;28;20038;-79
2021/12/28 06:08:24;;;;;;;0.82;0.80;;;;;;;3.40;100.00;98246.13;4946804;28;20364;-81
2021/12/28 06:10:49;;;;;;;0.40;0.40;;;;;;;3.28;100.00;98267.06;4925662;28;20079;-80
2021/12/28 06:13:15;;;;;;;2.05;1.95;;;;;;;3.26;100.00;98269.91;4951454;28;20081;-79
2021/12/28 06:15:41;;;;;;;5.28;4.88;;;;;;;3.12;100.00;98272.63;4933809;28;20125;-79
2021/12/28 06:18:06;;;;;;;0.63;0.63;;;;;;;2.98;100.00;98285.75;4934851;29;20046;-78
2021/12/28 06:20:32;;;;;;;0.95;0.95;;;;;;;3.01;100.00;98301.31;4950263;28;20039;-79
2021/12/28 06:22:58;;;;;;;0.40;0.40;;;;;;;2.91;100.00;98290.19;4952908;28;20405;-81
2021/12/28 06:25:23;;;;;;;0.40;0.40;;;;;;;3.06;100.00;98303.41;4965892;28;20097;-79
2021/12/28 06:27:49;;;;;;;1.20;1.20;;;;;;;3.46;100.00;98306.47;4932768;28;20039;-78
2021/12/28 06:30:18;;;;;;;0.60;0.60;;;;;;;3.74;100.00;98325.13;4964248;28;20062;-78
2021/12/28 06:32:46;;;;;;;0.60;0.60;;;;;;;3.98;100.00;98331.84;4955888;28;20070;-78
2021/12/28 06:35:12;;;;;;;2.67;2.47;;;;;;;4.23;100.00;98328.75;4961198;28;20026;-80
2021/12/28 06:37:38;;;;;;;0.68;0.68;;;;;;;4.44;100.00;98344.63;4936368;28;20353;-79
2021/12/28 06:40:06;;;;;;;0.63;0.63;;;;;;;4.58;100.00;98353.53;4947034;28;20145;-80
2021/12/28 06:42:32;;;;;;;1.08;0.60;;;;;;;4.73;100.00;98361.38;4951568;28;20464;-79
2021/12/28 06:44:58;;;;;;;3.30;1.33;;;;;;;4.83;100.00;98361.84;4948314;28;20496;-79
2021/12/28 06:47:23;;;;;;;1.40;1.30;;;;;;;4.94;100.00;98384.41;4949490;28;20030;-79
2021/12/28 06:49:49;;;;;;;0.50;0.50;;;;;;;4.91;100.00;98384.81;4947009;28;20058;-81
2021/12/28 06:52:15;;;;;;;6.13;2.53;;;;;;;4.87;100.00;98397.72;4944715;28;20443;-79
2021/12/28 06:54:41;;;;;;;1.23;0.95;;;;;;;4.91;100.00;98398.13;4933362;28;20034;-80
2021/12/28 06:57:09;;;;;;;7.32;3.10;;;;;;;5.02;100.00;98405.56;4967563;28;20137;-79
2021/12/28 06:59:43;;;;;;;12.15;5.55;;;;;;;5.10;100.00;98410.72;4951981;28;20126;-79
2021/12/28 07:02:13;;;;;;;1.98;1.48;;;;;;;5.18;100.00;98439.03;4967311;28;20026;-79
2021/12/28 07:04:38;;;;;;;19.75;7.88;;;;;;;5.16;100.00;98451.72;4966429;28;20133;-79
2021/12/28 07:07:05;;;;;;;1.95;1.55;;;;;;;5.05;100.00;98437.13;4935671;28;20429;-79
2021/12/28 07:09:31;;;;;;;24.05;6.95;;;;;;;5.18;100.00;98471.00;4949949;28;20176;-79
2021/12/28 07:11:56;;;;;;;7.80;2.35;;;;;;;5.10;100.00;98458.66;4949517;28;20311;-79
2021/12/28 07:14:22;;;;;;;1.77;1.45;;;;;;;5.16;100.00;98483.69;4938429;28;20042;-79
2021/12/28 07:16:48;;;;;;;1.13;0.95;;;;;;;5.12;100.00;98490.44;4969099;28;20034;-78
2021/12/28 07:19:13;;;;;;;3.65;1.80;;;;;;;5.13;100.00;98511.53;4955362;28;20094;-82
2021/12/28 07:21:40;;;;;;;0.82;0.68;;;;;;;5.13;100.00;98516.88;4948163;28;20038;-79
2021/12/28 07:24:07;;;;;;;0.60;0.60;;;;;;;5.19;100.00;98524.09;4952862;28;20457;-79
2021/12/28 07:26:34;;;;;;;0.57;0.57;;;;;;;5.18;100.00;98525.09;4941482;28;20512;-80
2021/12/28 07:29:00;;;;;;;0.60;0.60;;;;;;;5.19;100.00;98532.09;4965014;28;21212;-79
2021/12/28 07:31:26;;;;;;;0.90;0.90;;;;;;;5.16;100.00;98527.16;4946569;28;20035;-79
2021/12/28 07:33:51;;;;;;;0.50;0.50;;;;;;;5.20;100.00;98538.22;4934632;28;20676;-79
2021/12/28 07:36:18;;;;;;;2.28;1.25;;;;;;;5.19;100.00;98540.09;4946252;28;20078;-79
2021/12/28 07:38:43;;;;;;;3.40;1.35;;;;;;;5.23;100.00;98557.31;4960312;28;20123;-78
2021/12/28 07:41:09;;;;;;;0.50;0.50;;;;;;;5.18;100.00;98557.06;4967865;28;20117;-78
2021/12/28 07:43:35;;;;;;;0.50;0.50;;;;;;;5.20;100.00;98565.69;4935991;28;20424;-79
2021/12/28 07:46:01;;;;;;;3.22;2.90;;;;;;;5.16;100.00;98560.94;4932978;28;20308;-79
2021/12/28 07:48:35;;;;;;;0.93;0.80;;;;;;;5.16;100.00;98569.78;4950892;28;20034;-79
2021/12/28 07:51:01;;;;;;;0.63;0.63;;;;;;;5.26;100.00;98580.88;4937707;28;20561;-78
2021/12/28 07:53:27;;;;;;;0.50;0.50;;;;;;;5.16;100.00;98574.25;4934766;28;20030;-79
2021/12/28 07:55:53;;;;;;;0.50;0.50;;;;;;;5.25;100.00;98602.41;4952058;28;20365;-79
2021/12/28 07:58:19;;;;;;;0.50;0.50;;;;;;;5.30;100.00;98621.31;4937121;28;20037;-78
2021/12/28 08:00:47;;;;;;;4.20;4.00;;;;;;;5.27;100.00;98627.84;4970257;28;20034;-78
2021/12/28 08:03:13;;;;;;;0.70;0.70;;;;;;;5.29;100.00;98638.31;4957200;28;20104;-80
2021/12/28 08:05:39;;;;;;;0.50;0.50;;;;;;;5.26;100.00;98644.84;4969907;28;20460;-82
2021/12/28 08:08:04;;;;;;;0.50;0.50;;;;;;;5.29;100.00;98656.94;4950923;28;20050;-79
2021/12/28 08:10:31;;;;;;;1.77;1.67;;;;;;;5.24;100.00;98662.88;4964127;28;20066;-79
2021/12/28 08:12:56;;;;;;;0.50;0.50;;;;;;;5.29;100.00;98676.44;4948463;28;20093;-81
2021/12/28 08:15:24;;;;;;;0.73;0.63;;;;;;;5.28;100.00;98674.78;4935379;28;20038;-79
2021/12/28 08:17:50;;;;;;;0.50;0.50;;;;;;;5.26;100.00;98671.47;4928290;28;20046;-80
2021/12/28 08:20:19;;;;;;;0.40;0.40;;;;;;;5.33;100.00;98692.06;4965088;28;20162;-79
2021/12/28 08:22:46;;;;;;;3.83;3.47;;;;;;;5.34;100.00;98704.34;4936883;28;20038;-79
2021/12/28 08:25:13;;;;;;;0.52;0.52;;;;;;;5.34;100.00;98707.84;4934633;28;20050;-78
2021/12/28 08:27:39;;;;;;;6.43;2.22;;;;;;;5.26;100.00;98703.47;4935757;28;20086;-78
2021/12/28 08:30:06;;;;;;;5.22;2.50;;;;;;;5.34;100.00;98713.16;4953523;28;20042;-80
2021/12/28 08:32:32;;;;;;;3.58;3.20;;;;;;;5.10;100.00;98695.75;4968711;28;20037;-78
2021/12/28 08:34:58;;;;;;;2.97;2.15;;;;;;;5.18;100.00;98738.22;4938911;28;20046;-78
2021/12/28 08:37:24;;;;;;;2.08;1.75;;;;;;;5.01;100.00;98755.50;4936729;28;20122;-79
2021/12/28 08:39:50;;;;;;;1.02;0.95;;;;;;;4.79;100.00;98759.94;4965039;28;20039;-79
2021/12/28 08:42:16;;;;;;;0.80;0.80;;;;;;;4.64;100.00;98757.34;4962796;28;20035;-79
2021/12/28 08:44:42;;;;;;;1.30;0.88;;;;;;;4.52;100.00;98766.78;4963945;28;20039;-81
2021/12/28 08:47:08;;;;;;;0.60;0.60;;;;;;;4.44;100.00;98780.22;4933741;28;20041;-79
2021/12/28 08:49:34;;;;;;;2.17;0.93;;;;;;;4.26;100.00;98785.91;4966145;28;20026;-78
2021/12/28 08:52:00;;;;;;;0.60;0.60;;;;;;;4.16;100.00;98794.16;4951649;28;20045;-80
2021/12/28 08:54:25;;;;;;;0.40;0.40;;;;;;;4.09;100.00;98809.19;4952100;28;20046;-78
2021/12/28 08:56:52;;;;;;;0.65;0.65;;;;;;;3.97;100.00;98800.84;4952143;28;20022;-79
2021/12/28 08:59:19;;;;;;;0.60;0.60;;;;;;;3.84;100.00;98806.78;4951935;28;20117;-78
2021/12/28 09:01:45;;;;;;;0.95;0.95;;;;;;;3.74;100.00;98808.88;4932784;28;20034;-79
2021/12/28 09:04:10;;;;;;;1.98;1.88;;;;;;;3.87;100.00;98829.53;4949955;28;20291;-78
2021/12/28 09:06:36;;;;;;;0.40;0.40;;;;;;;4.01;100.00;98843.84;4965437;28;20436;-79
2021/12/28 09:09:02;;;;;;;1.58;1.48;;;;;;;4.04;100.00;98830.19;4927882;28;20035;-78
2021/12/28 09:11:28;;;;;;;0.50;0.50;;;;;;;4.29;100.00;98862.72;4951462;28;20094;-78
2021/12/28 09:13:54;;;;;;;0.50;0.50;;;;;;;4.32;100.00;98871.13;4943941;28;20039;-79
2021/12/28 09:16:19;;;;;;;0.50;0.50;;;;;;;4.47;100.00;98883.63;4961930;28;20117;-79
2021/12/28 09:18:45;;;;;;;0.50;0.50;;;;;;;4.58;100.00;98878.69;4967379;28;20125;-78
2021/12/28 09:21:11;;;;;;;1.08;1.08;;;;;;;4.66;100.00;98871.59;4938289;28;20034;-78
2021/12/28 09:23:38;;;;;;;0.40;0.40;;;;;;;4.75;100.00;98886.47;4937126;28;20026;-79
2021/12/28 09:26:05;;;;;;;0.50;0.50;;;;;;;4.82;100.00;98904.22;4958951;28;20034;-80
2021/12/28 09:28:31;;;;;;;0.65;0.65;;;;;;;4.88;100.00;98921.28;4959174;28;20126;-79
2021/12/28 09:30:56;;;;;;;1.27;1.27;;;;;;;4.99;100.00;98923.47;4926319;28;20117;-79
2021/12/28 09:33:24;;;;;;;0.50;0.50;;;;;;;5.16;100.00;98937.44;4943952;28;20063;-81
2021/12/28 09:35:51;;;;;;;0.50;0.50;;;;;;;5.28;100.00;98940.44;4928493;28;20078;-80
2021/12/28 09:38:19;;;;;;;0.50;0.50;;;;;;;5.47;100.00;98947.03;4973438;28;20400;-79
2021/12/28 09:40:46;;;;;;;0.50;0.50;;;;;;;5.61;100.00;98950.66;4971755;28;20457;-78
2021/12/28 09:43:13;;;;;;;0.50;0.50;;;;;;;5.64;100.00;98944.97;4956262;28;20034;-78
2021/12/28 09:45:39;;;;;;;2.05;1.90;;;;;;;5.77;100.00;98960.25;4951527;28;20027;-78
2021/12/28 09:48:07;;;;;;;0.63;0.63;;;;;;;5.84;100.00;98964.66;4941134;28;20050;-78
2021/12/28 09:50:34;;;;;;;0.50;0.50;;;;;;;5.92;100.00;98966.38;4951625;28;20591;-79
2021/12/28 09:53:01;;;;;;;0.43;0.43;;;;;;;5.99;100.00;98983.31;4971156;28;20026;-78
2021/12/28 09:55:27;;;;;;;0.50;0.50;;;;;;;6.06;100.00;98981.56;4941156;28;20031;-81
2021/12/28 09:57:53;;;;;;;0.47;0.47;;;;;;;6.22;100.00;99001.81;4940485;28;20130;-84
2021/12/28 10:00:21;;;;;;;0.50;0.50;;;;;;;6.40;100.00;99012.03;4956997;28;20166;-84
2021/12/28 10:02:49;;;;;;;0.75;0.75;;;;;;;6.63;100.00;99016.34;4958221;28;20590;-84
2021/12/28 10:05:20;;;;;;;0.60;0.60;;;;;;;7.25;100.00;99019.03;4942548;28;20461;-83
2021/12/28 10:07:49;;;;;;;0.70;0.70;;;;;;;8.27;100.00;99025.38;4954842;29;20031;-84
2021/12/28 10:10:15;;;;;;;0.52;0.52;;;;;;;9.02;100.00;99019.84;4971209;28;20043;-84
2021/12/28 10:12:48;;;;;;;0.52;0.52;;;;;;;9.51;100.00;99017.72;4942272;28;20192;-84
2021/12/28 10:15:24;;;;;;;0.77;0.75;;;;;;;8.43;100.00;99020.69;4974446;28;20209;-84
2021/12/28 10:17:52;;;;;;;2.25;1.40;;;;;;;7.85;100.00;99035.34;4973671;28;20033;-85
2021/12/28 10:20:32;;;;;;;2.15;2.00;;;;;;;7.48;100.00;99042.81;4974449;28;20026;-84
2021/12/28 10:23:02;;;;;;;0.40;0.40;;;;;;;7.22;100.00;99061.38;4939545;29;20035;-84
2021/12/28 10:25:40;;;;;;;0.70;0.70;;;;;;;7.04;100.00;99057.34;4923804;29;20119;-86
2021/12/28 10:28:09;;;;;;;0.65;0.65;;;;;;;6.95;100.00;99055.84;4942113;28;20042;-85
2021/12/28 10:30:43;;;;;;;1.23;1.20;;;;;;;6.96;100.00;99059.31;4957280;28;20506;-84
2021/12/28 10:33:12;;;;;;;0.70;0.70;;;;;;;6.86;100.00;99051.66;4958002;28;20022;-84
2021/12/28 10:35:44;;;;;;;1.60;1.52;;;;;;;6.98;100.00;99071.47;4958186;28;20117;-84
2021/12/28 10:38:25;;;;;;;1.70;1.25;;;;;;;7.00;100.00;99068.63;4974578;28;20023;-83
2021/12/28 10:40:54;;;;;;;0.93;0.93;;;;;;;6.88;100.00;99057.66;4973383;28;20023;-84
2021/12/28 10:43:26;;;;;;;0.43;0.43;;;;;;;7.05;100.00;99085.72;4953937;28;20188;-83
2021/12/28 10:45:54;;;;;;;0.45;0.45;;;;;;;6.94;100.00;99054.19;4939005;29;20047;-83
2021/12/28 10:48:23;;;;;;;0.50;0.50;;;;;;;7.14;100.00;99066.88;4955560;28;20071;-83
2021/12/28 10:50:54;;;;;;;0.60;0.60;;;;;;;7.25;100.00;99074.34;4936558;28;20476;-86
2021/12/28 10:53:32;;;;;;;0.45;0.45;;;;;;;7.33;100.00;99084.91;4962609;28;20042;-84
2021/12/28 10:55:59;;;;;;;2.67;2.00;;;;;;;7.36;100.00;99089.03;4980466;28;20031;-85
2021/12/28 10:58:40;;;;;;;5.65;3.03;;;;;;;7.42;100.00;99098.94;4938281;29;20560;-83
2021/12/28 11:01:08;;;;;;;0.70;0.70;;;;;;;7.60;100.00;99101.94;4938882;29;20043;-81
2021/12/28 11:03:36;;;;;;;1.08;1.08;;;;;;;7.56;100.00;99100.66;4937726;29;20027;-81
2021/12/28 11:06:14;;;;;;;2.00;1.90;;;;;;;7.10;100.00;99090.50;4951608;28;20035;-82
2021/12/28 11:08:44;;;;;;;6.38;3.90;;;;;;;7.79;100.00;99073.63;4953379;28;20034;-82
2021/12/28 11:11:13;;;;;;;2.00;1.77;;;;;;;8.49;100.00;99076.13;4955518;28;20516;-83
2021/12/28 11:13:38;;;;;;;4.60;3.25;;;;;;;9.27;98.88;99062.94;4941086;28;20054;-82
2021/12/28 11:16:07;;;;;;;0.70;0.70;;;;;;;10.11;95.12;99069.28;4969876;28;20031;-83
2021/12/28 11:18:36;;;;;;;2.08;1.98;;;;;;;10.33;93.92;99069.81;4949481;28;20137;-82
2021/12/28 11:21:23;;;;;;;1.10;1.10;;;;;;;10.53;93.45;99070.53;4968495;28;20457;-83
2021/12/28 11:23:51;;;;;;;0.70;0.70;;;;;;;10.23;95.27;99070.25;4985305;28;20039;-81
2021/12/28 11:26:30;;;;;;;1.23;1.23;;;;;;;9.99;97.21;99079.88;4938834;28;20034;-82
2021/12/28 11:29:08;;;;;;;0.93;0.90;;;;;;;9.72;99.54;99092.56;4936334;28;20038;-84
2021/12/28 11:31:50;;;;;;;1.90;1.80;;;;;;;8.68;100.00;99102.16;4937549;28;20030;-81